Time;durP1;ratioP1;P1;durP2;ratioP2;P2;SDS_P1;SDS_P2;PMS_P1;PMS_P2;Temp;Humidity;BMP_temperature;BMP_pressure;BME280_temperature;BME280_humidity;BME280_pressure;Samples;Min_cycle;Max_cycle;Signal;HPM_P1;HPM_P2
2023/11/28 00:00:02;;;;;;;21.02;14.07;;;;;;;6.32;62.31;96661.56;5035589;28;20120;-65
2023/11/28 00:02:32;;;;;;;23.17;15.18;;;;;;;6.32;62.35;96671.88;5029775;28;20036;-67
2023/11/28 00:05:00;;;;;;;22.27;14.35;;;;;;;6.36;63.02;96665.41;5047350;28;20048;-67
2023/11/28 00:07:26;;;;;;;18.55;13.77;;;;;;;6.39;62.12;96657.34;5036057;28;20025;-65
2023/11/28 00:09:51;;;;;;;23.75;14.40;;;;;;;6.31;62.78;96645.22;5027590;28;20770;-66
2023/11/28 00:12:16;;;;;;;21.75;14.50;;;;;;;6.20;63.20;96643.00;5028476;28;20037;-68
2023/11/28 00:14:48;;;;;;;21.58;14.60;;;;;;;6.10;63.51;96635.47;5029229;28;20033;-67
2023/11/28 00:17:16;;;;;;;23.17;14.77;;;;;;;6.18;62.91;96632.06;5031077;28;20060;-67
2023/11/28 00:19:42;;;;;;;29.20;15.68;;;;;;;6.10;62.99;96640.63;5032188;28;20122;-67
2023/11/28 00:22:08;;;;;;;27.30;16.05;;;;;;;6.13;63.22;96650.63;5016569;28;20506;-67
2023/11/28 00:24:33;;;;;;;24.70;16.13;;;;;;;6.18;63.11;96664.81;5031226;28;20033;-67
2023/11/28 00:26:59;;;;;;;24.88;15.30;;;;;;;6.15;63.22;96674.50;5034447;28;20036;-68
2023/11/28 00:29:25;;;;;;;27.20;16.15;;;;;;;6.15;64.26;96681.41;5032242;28;20804;-67
2023/11/28 00:31:51;;;;;;;24.20;16.10;;;;;;;5.80;64.94;96626.59;5051739;28;20025;-67
2023/11/28 00:34:16;;;;;;;24.67;16.23;;;;;;;6.12;63.71;96668.84;5030242;28;20589;-67
2023/11/28 00:36:42;;;;;;;22.20;15.32;;;;;;;6.08;63.82;96658.06;5031223;28;20532;-66
2023/11/28 00:39:09;;;;;;;24.30;16.35;;;;;;;5.96;65.00;96665.31;5032489;28;20043;-67
2023/11/28 00:41:40;;;;;;;27.90;16.75;;;;;;;5.63;64.38;96630.19;5029755;28;20037;-67
2023/11/28 00:44:05;;;;;;;25.52;15.57;;;;;;;5.86;64.32;96664.66;5030185;28;20036;-67
2023/11/28 00:46:33;;;;;;;25.02;15.57;;;;;;;5.78;65.14;96646.59;5050480;28;20036;-67
2023/11/28 00:48:59;;;;;;;23.45;16.58;;;;;;;5.55;64.93;96590.53;5032548;28;20772;-67
2023/11/28 00:51:27;;;;;;;24.13;15.52;;;;;;;5.85;65.12;96618.38;5041252;28;20036;-67
2023/11/28 00:53:52;;;;;;;23.80;15.43;;;;;;;5.81;65.51;96624.84;5037389;28;20049;-67
2023/11/28 00:56:19;;;;;;;24.38;15.90;;;;;;;5.90;65.41;96608.41;5022173;28;20075;-67
2023/11/28 00:58:45;;;;;;;23.13;15.38;;;;;;;5.96;65.43;96592.28;5032901;28;20128;-67
2023/11/28 01:01:12;;;;;;;22.40;15.70;;;;;;;5.93;65.59;96587.41;5028300;28;20025;-67
2023/11/28 01:03:43;;;;;;;24.55;16.08;;;;;;;5.86;65.47;96576.97;5014342;28;20041;-67
2023/11/28 01:06:08;;;;;;;22.15;15.93;;;;;;;5.85;65.21;96590.81;5014822;28;20034;-67
2023/11/28 01:08:36;;;;;;;22.95;15.60;;;;;;;5.66;65.65;96566.19;5030668;28;20119;-67
2023/11/28 01:11:08;;;;;;;20.88;14.05;;;;;;;5.90;65.15;96575.66;5035239;28;20056;-67
2023/11/28 01:13:33;;;;;;;22.98;15.20;;;;;;;5.85;66.07;96580.50;5027141;28;20029;-67
2023/11/28 01:16:02;;;;;;;18.73;13.55;;;;;;;5.77;65.95;96583.09;5031397;28;20094;-67
2023/11/28 01:18:27;;;;;;;24.25;15.55;;;;;;;5.50;65.68;96579.13;5027478;28;20685;-67
2023/11/28 01:20:55;;;;;;;21.95;15.70;;;;;;;5.60;65.08;96584.88;5033146;28;20025;-67
2023/11/28 01:23:21;;;;;;;21.80;14.45;;;;;;;5.70;64.95;96593.25;5021972;28;20036;-68
2023/11/28 01:25:46;;;;;;;20.48;14.18;;;;;;;5.58;65.55;96577.34;5033162;28;20029;-67
2023/11/28 01:28:12;;;;;;;23.27;14.55;;;;;;;5.47;65.60;96582.00;5015986;28;20525;-67
2023/11/28 01:30:37;;;;;;;22.55;14.35;;;;;;;5.20;66.32;96538.38;5026237;28;20037;-68
2023/11/28 01:33:05;;;;;;;21.38;14.13;;;;;;;5.55;66.18;96579.44;5014953;28;20383;-68
2023/11/28 01:35:31;;;;;;;21.25;14.30;;;;;;;5.53;65.34;96566.69;5016789;28;20043;-66
2023/11/28 01:37:56;;;;;;;24.83;14.68;;;;;;;5.59;65.63;96575.56;5016384;28;20056;-67
2023/11/28 01:40:22;;;;;;;21.88;14.10;;;;;;;5.63;66.10;96571.69;5033008;28;20029;-67
2023/11/28 01:42:49;;;;;;;19.98;14.43;;;;;;;5.44;66.14;96569.44;5047777;28;20037;-67
2023/11/28 01:45:21;;;;;;;21.10;14.77;;;;;;;5.56;66.35;96563.78;5031317;28;20040;-67
2023/11/28 01:47:49;;;;;;;22.33;14.45;;;;;;;5.63;65.32;96560.56;5037468;28;20059;-66
2023/11/28 01:50:17;;;;;;;21.00;13.93;;;;;;;5.57;65.39;96562.81;5011609;28;20025;-66
2023/11/28 01:52:42;;;;;;;22.48;13.98;;;;;;;5.53;66.30;96553.81;5032946;28;20444;-67
2023/11/28 01:55:08;;;;;;;22.27;14.70;;;;;;;5.38;66.83;96545.13;5029945;28;20537;-67
2023/11/28 01:57:33;;;;;;;19.13;14.13;;;;;;;4.92;67.57;96498.44;5028801;28;20050;-66
2023/11/28 02:00:00;;;;;;;20.13;13.82;;;;;;;5.03;67.06;96539.31;5031564;28;20061;-68
2023/11/28 02:02:27;;;;;;;18.98;14.00;;;;;;;4.68;68.63;96540.41;5025791;28;20861;-67
2023/11/28 02:04:52;;;;;;;21.73;13.35;;;;;;;4.69;68.73;96524.81;5016957;28;20683;-67
2023/11/28 02:07:18;;;;;;;19.92;14.13;;;;;;;4.68;69.06;96522.41;5031129;28;20895;-67
2023/11/28 02:09:46;;;;;;;17.60;13.35;;;;;;;4.43;69.45;96494.84;5032896;28;20040;-67
2023/11/28 02:12:12;;;;;;;20.67;13.98;;;;;;;4.54;68.84;96498.06;5030574;28;20044;-67
2023/11/28 02:14:44;;;;;;;18.30;13.10;;;;;;;4.66;68.57;96490.88;5013028;28;20033;-67
2023/11/28 02:17:11;;;;;;;21.63;13.48;;;;;;;4.62;69.20;96477.50;5035110;28;20090;-67
2023/11/28 02:19:37;;;;;;;20.02;12.65;;;;;;;4.77;68.81;96487.97;5011682;28;20051;-65
2023/11/28 02:22:05;;;;;;;19.63;13.23;;;;;;;4.93;68.89;96502.63;5035945;28;20033;-67
2023/11/28 02:24:39;;;;;;;17.08;11.80;;;;;;;4.59;69.38;96490.69;5013934;28;20509;-67
2023/11/28 02:27:05;;;;;;;20.73;13.20;;;;;;;4.46;69.46;96477.47;5015699;28;20029;-67
2023/11/28 02:29:33;;;;;;;24.83;12.07;;;;;;;4.30;68.81;96457.66;5026684;28;20025;-66
2023/11/28 02:32:00;;;;;;;17.48;10.27;;;;;;;4.67;68.36;96495.03;5044240;28;20800;-66
2023/11/28 02:34:26;;;;;;;14.60;10.63;;;;;;;4.84;68.01;96482.97;5028630;28;20060;-66
2023/11/28 02:36:53;;;;;;;14.48;9.50;;;;;;;4.87;67.70;96504.06;5030929;28;20375;-66
2023/11/28 02:39:19;;;;;;;15.50;10.02;;;;;;;4.85;68.19;96494.91;5028956;28;20119;-66
2023/11/28 02:41:44;;;;;;;17.13;10.45;;;;;;;4.94;68.30;96494.72;5032931;28;20065;-66
2023/11/28 02:44:10;;;;;;;15.30;9.95;;;;;;;4.95;68.23;96503.28;5029017;28;20021;-66
2023/11/28 02:46:35;;;;;;;20.52;12.93;;;;;;;5.05;68.07;96498.75;5030609;28;20900;-66
2023/11/28 02:49:01;;;;;;;18.38;13.25;;;;;;;4.93;68.03;96493.13;5041277;28;20021;-67
2023/11/28 02:51:26;;;;;;;19.77;12.65;;;;;;;4.72;68.56;96496.16;5022576;28;20041;-66
2023/11/28 02:53:51;;;;;;;18.38;12.25;;;;;;;4.27;70.14;96452.81;5028841;28;20504;-66
2023/11/28 02:56:17;;;;;;;19.10;12.70;;;;;;;4.51;69.62;96473.47;5037323;28;20029;-66
2023/11/28 02:58:42;;;;;;;18.83;13.23;;;;;;;4.48;70.33;96462.69;5028719;28;20045;-66
2023/11/28 03:01:10;;;;;;;18.83;12.60;;;;;;;4.54;70.19;96446.59;5027864;28;20021;-65
2023/11/28 03:03:37;;;;;;;19.00;13.05;;;;;;;4.55;70.67;96425.06;5029536;28;20060;-66
2023/11/28 03:06:03;;;;;;;17.45;11.38;;;;;;;4.36;71.07;96411.53;5026165;28;20504;-66
2023/11/28 03:08:28;;;;;;;14.68;10.25;;;;;;;4.40;72.40;96412.81;5032103;28;20024;-66
2023/11/28 03:10:54;;;;;;;14.57;9.57;;;;;;;4.59;72.97;96409.13;5043743;28;20038;-66
2023/11/28 03:13:19;;;;;;;12.50;8.90;;;;;;;4.72;71.01;96416.34;5014314;28;20567;-66
2023/11/28 03:15:45;;;;;;;13.93;8.63;;;;;;;4.18;70.18;96333.69;5015687;28;20037;-66
2023/11/28 03:18:10;;;;;;;13.90;8.82;;;;;;;4.66;69.98;96426.50;5027377;28;20025;-66
2023/11/28 03:20:36;;;;;;;12.55;9.07;;;;;;;4.60;69.97;96427.97;5027743;28;20037;-66
2023/11/28 03:23:03;;;;;;;11.95;7.70;;;;;;;4.68;69.52;96415.06;5010851;28;20039;-66
2023/11/28 03:25:31;;;;;;;14.07;8.40;;;;;;;4.64;69.34;96408.66;5031513;28;20063;-66
2023/11/28 03:27:59;;;;;;;13.63;8.50;;;;;;;4.41;69.51;96352.66;5032497;28;20044;-66
2023/11/28 03:30:27;;;;;;;10.98;7.57;;;;;;;4.66;69.35;96391.28;5025172;28;20681;-66
2023/11/28 03:32:55;;;;;;;13.05;7.70;;;;;;;4.70;69.10;96382.25;5030056;28;20024;-68
2023/11/28 03:35:20;;;;;;;12.38;8.20;;;;;;;4.76;68.55;96381.63;5011297;28;20879;-65
2023/11/28 03:37:46;;;;;;;11.80;7.40;;;;;;;4.63;68.03;96358.13;5029503;28;20029;-66
2023/11/28 03:40:18;;;;;;;12.90;7.85;;;;;;;4.85;68.01;96390.13;5028568;28;20044;-66
2023/11/28 03:42:43;;;;;;;13.20;8.55;;;;;;;4.93;68.62;96384.16;5028184;28;20032;-66
2023/11/28 03:45:13;;;;;;;11.93;7.25;;;;;;;4.87;68.16;96405.41;5015967;28;20687;-66
2023/11/28 03:47:39;;;;;;;14.23;7.65;;;;;;;4.86;68.46;96401.25;5025895;28;20029;-66
2023/11/28 03:50:08;;;;;;;11.70;7.28;;;;;;;4.90;68.48;96377.56;5023748;28;20051;-66
2023/11/28 03:52:33;;;;;;;13.38;8.00;;;;;;;4.93;70.36;96381.59;5021336;28;20022;-65
2023/11/28 03:55:03;;;;;;;13.88;8.93;;;;;;;5.02;69.81;96370.31;5030540;28;20021;-66
2023/11/28 03:57:31;;;;;;;19.08;12.05;;;;;;;4.46;69.72;96307.66;5009779;28;20075;-66
2023/11/28 03:59:56;;;;;;;17.83;11.85;;;;;;;4.60;70.02;96355.88;5033839;28;20514;-66
2023/11/28 04:02:24;;;;;;;15.73;11.40;;;;;;;4.35;70.42;96329.34;5012663;28;20032;-66
2023/11/28 04:04:52;;;;;;;19.80;11.60;;;;;;;4.26;70.82;96353.47;5026668;28;20039;-66
2023/11/28 04:07:19;;;;;;;16.77;11.02;;;;;;;4.40;71.76;96355.41;5027917;28;20777;-66
2023/11/28 04:09:45;;;;;;;14.90;10.70;;;;;;;4.42;71.98;96349.13;5009732;28;20041;-66
2023/11/28 04:12:12;;;;;;;17.17;11.07;;;;;;;4.51;71.74;96364.56;5027959;28;20029;-68
2023/11/28 04:14:38;;;;;;;16.90;10.07;;;;;;;4.42;72.32;96376.63;5027713;28;20061;-66
2023/11/28 04:17:03;;;;;;;17.13;11.57;;;;;;;4.21;72.20;96353.94;5048726;28;20560;-67
2023/11/28 04:19:29;;;;;;;16.35;12.38;;;;;;;4.16;72.08;96363.91;5004764;28;20040;-67
2023/11/28 04:21:54;;;;;;;17.42;11.77;;;;;;;4.00;73.06;96352.63;5030331;28;20041;-67
2023/11/28 04:24:20;;;;;;;17.95;11.18;;;;;;;4.01;72.83;96348.28;5025983;28;20056;-67
2023/11/28 04:26:45;;;;;;;18.15;11.43;;;;;;;3.76;72.86;96296.03;5050291;28;20041;-67
2023/11/28 04:29:15;;;;;;;17.33;11.18;;;;;;;4.09;73.30;96343.19;5015155;28;20696;-67
2023/11/28 04:31:43;;;;;;;16.27;10.68;;;;;;;4.19;73.37;96348.94;5012995;28;20053;-67
2023/11/28 04:34:11;;;;;;;17.27;10.85;;;;;;;4.19;72.85;96330.16;5025310;28;20025;-67
2023/11/28 04:36:36;;;;;;;16.42;10.45;;;;;;;4.05;73.12;96331.56;5043530;28;20496;-67
2023/11/28 04:39:05;;;;;;;16.08;10.20;;;;;;;3.96;73.80;96317.09;5027530;28;20136;-67
2023/11/28 04:41:33;;;;;;;13.63;9.30;;;;;;;3.92;73.81;96324.34;5015238;28;20122;-67
2023/11/28 04:43:58;;;;;;;17.50;10.48;;;;;;;3.82;74.85;96323.69;5029815;28;20067;-67
2023/11/28 04:46:24;;;;;;;17.10;10.85;;;;;;;3.66;74.91;96303.91;5030793;28;20775;-67
2023/11/28 04:48:52;;;;;;;16.95;11.77;;;;;;;3.50;74.21;96253.25;5027871;28;20029;-68
2023/11/28 04:51:19;;;;;;;19.77;12.20;;;;;;;3.56;74.01;96236.41;5041185;28;20032;-67
2023/11/28 04:53:47;;;;;;;19.33;14.07;;;;;;;3.64;74.67;96282.69;5026308;28;21415;-67
2023/11/28 04:56:12;;;;;;;21.20;14.48;;;;;;;3.72;74.44;96298.13;5029383;28;20040;-66
2023/11/28 04:58:43;;;;;;;23.67;15.55;;;;;;;3.50;74.27;96276.38;5049933;28;20037;-68
2023/11/28 05:01:12;;;;;;;21.27;14.23;;;;;;;3.45;75.82;96287.16;5034645;28;20067;-67
2023/11/28 05:03:38;;;;;;;18.30;12.93;;;;;;;3.42;75.69;96290.03;5037339;28;20035;-67
2023/11/28 05:06:05;;;;;;;18.80;12.88;;;;;;;3.36;76.15;96282.13;5026465;28;20029;-67
2023/11/28 05:08:32;;;;;;;20.52;13.75;;;;;;;3.63;75.44;96281.91;5013660;28;20124;-67
2023/11/28 05:10:58;;;;;;;20.20;12.32;;;;;;;3.26;75.36;96236.03;5025976;28;20097;-67
2023/11/28 05:13:23;;;;;;;17.23;11.60;;;;;;;3.51;75.83;96285.72;5034292;28;20028;-67
2023/11/28 05:15:51;;;;;;;16.35;12.00;;;;;;;3.29;75.78;96255.50;5010508;28;20037;-67
2023/11/28 05:18:17;;;;;;;17.63;11.00;;;;;;;3.14;75.07;96257.81;5026252;28;20049;-67
2023/11/28 05:20:42;;;;;;;16.48;11.05;;;;;;;3.42;75.60;96302.88;5032225;28;21224;-67
2023/11/28 05:23:07;;;;;;;19.42;11.38;;;;;;;3.42;75.42;96281.53;5013113;28;20040;-66
2023/11/28 05:25:35;;;;;;;15.80;11.05;;;;;;;3.43;75.77;96281.38;5035472;28;20495;-66
2023/11/28 05:28:03;;;;;;;16.20;12.07;;;;;;;3.33;75.88;96290.16;5041339;28;20761;-66
2023/11/28 05:30:28;;;;;;;18.45;11.52;;;;;;;3.37;75.56;96287.13;5046602;28;20032;-66
2023/11/28 05:32:54;;;;;;;19.70;12.18;;;;;;;3.34;75.58;96294.34;5029756;28;20753;-65
2023/11/28 05:35:19;;;;;;;20.30;11.48;;;;;;;3.15;75.56;96280.00;5037756;28;20472;-66
2023/11/28 05:37:45;;;;;;;21.67;11.93;;;;;;;3.21;76.38;96281.94;5028585;28;20037;-66
2023/11/28 05:40:11;;;;;;;17.25;11.25;;;;;;;3.09;76.76;96258.31;5026819;28;20037;-66
2023/11/28 05:42:36;;;;;;;18.90;12.25;;;;;;;2.99;77.82;96291.00;5016396;28;20491;-66
2023/11/28 05:45:02;;;;;;;17.42;11.57;;;;;;;3.18;76.96;96293.31;5012128;28;20132;-66
2023/11/28 05:47:29;;;;;;;20.67;12.25;;;;;;;3.03;76.83;96310.25;5028314;28;20033;-67
2023/11/28 05:49:59;;;;;;;17.45;11.30;;;;;;;2.94;78.25;96313.75;5028300;28;20027;-66
2023/11/28 05:52:29;;;;;;;;;;;;;;;3.06;78.59;96317.66;5031616;28;20045;-66
2023/11/28 05:54:55;;;;;;;19.10;11.45;;;;;;;3.19;77.96;96323.16;5044375;28;19928;-66
2023/11/28 05:57:23;;;;;;;17.80;11.05;;;;;;;3.39;77.33;96320.34;5014756;28;20451;-66
2023/11/28 05:59:51;;;;;;;18.10;11.55;;;;;;;3.28;76.86;96300.91;5028391;28;20090;-66
2023/11/28 06:02:16;;;;;;;19.23;12.18;;;;;;;3.40;77.01;96306.56;5016734;28;20083;-66
2023/11/28 06:04:44;;;;;;;21.25;11.75;;;;;;;3.39;77.60;96292.09;5049282;28;20033;-66
2023/11/28 06:07:12;;;;;;;17.88;10.93;;;;;;;3.26;77.33;96307.97;5027070;28;20794;-67
2023/11/28 06:09:37;;;;;;;15.88;9.95;;;;;;;3.12;80.32;96313.69;5031979;28;20028;-67
2023/11/28 06:12:03;;;;;;;14.57;9.00;;;;;;;3.10;81.51;96307.91;5011553;28;20029;-67
2023/11/28 06:14:32;;;;;;;17.70;8.90;;;;;;;3.12;84.12;96306.78;5025665;28;20484;-67
2023/11/28 06:17:00;;;;;;;12.25;7.78;;;;;;;3.38;82.98;96313.63;5027311;28;20078;-67
2023/11/28 06:19:26;;;;;;;11.68;6.72;;;;;;;3.25;81.92;96255.78;5015821;28;20032;-67
2023/11/28 06:21:52;;;;;;;8.35;5.20;;;;;;;3.62;81.74;96307.75;5026410;28;20047;-67
2023/11/28 06:24:17;;;;;;;10.30;5.35;;;;;;;3.73;81.78;96311.78;5026301;28;20021;-66
2023/11/28 06:26:46;;;;;;;9.70;5.15;;;;;;;3.69;78.68;96272.75;5031345;28;20147;-66
2023/11/28 06:29:11;;;;;;;8.57;5.32;;;;;;;3.95;80.50;96310.38;5025830;28;20028;-66
2023/11/28 06:31:36;;;;;;;8.57;4.82;;;;;;;4.06;78.16;96316.97;5029089;28;20037;-66
2023/11/28 06:34:04;;;;;;;8.57;4.47;;;;;;;3.99;74.66;96306.50;5011774;28;20032;-66
2023/11/28 06:36:33;;;;;;;7.47;3.83;;;;;;;3.72;76.34;96251.06;5014835;28;20033;-65
2023/11/28 06:38:59;;;;;;;8.57;4.15;;;;;;;4.14;75.17;96301.53;5019964;28;21300;-66
2023/11/28 06:41:24;;;;;;;7.25;4.30;;;;;;;4.28;76.96;96293.16;5030382;28;20033;-66
2023/11/28 06:43:51;;;;;;;8.27;4.75;;;;;;;4.37;78.92;96288.81;5026780;28;20507;-66
2023/11/28 06:46:21;;;;;;;8.48;4.65;;;;;;;4.45;78.94;96283.66;5042986;28;20040;-65
2023/11/28 06:48:50;;;;;;;9.13;4.28;;;;;;;4.32;79.90;96263.56;5027520;28;20125;-66
2023/11/28 06:51:15;;;;;;;9.35;4.60;;;;;;;4.16;75.28;96297.84;5010973;28;20546;-66
2023/11/28 06:53:41;;;;;;;9.43;4.57;;;;;;;4.09;74.22;96291.75;5031415;28;20052;-66
2023/11/28 06:56:10;;;;;;;5.00;2.30;;;;;;;3.90;71.40;96249.13;5027632;28;20087;-65
2023/11/28 06:58:36;;;;;;;8.50;3.73;;;;;;;4.02;71.18;96249.63;5031920;28;20425;-66
2023/11/28 07:01:01;;;;;;;6.82;2.97;;;;;;;4.26;71.10;96245.44;5030410;28;20275;-66
2023/11/28 07:03:31;;;;;;;5.45;2.70;;;;;;;4.36;71.28;96239.16;5011473;28;20044;-65
2023/11/28 07:05:56;;;;;;;;;;;;;;;4.69;71.10;96275.09;5032791;28;20449;-66
2023/11/28 07:08:22;;;;;;;6.20;2.67;;;;;;;4.48;69.66;96265.31;5006846;28;19920;-66
2023/11/28 07:10:47;;;;;;;5.50;2.30;;;;;;;4.28;69.20;96222.91;5012873;28;20040;-66
2023/11/28 07:13:12;;;;;;;5.35;2.35;;;;;;;4.51;69.83;96259.03;5008205;28;20072;-66
2023/11/28 07:15:38;;;;;;;5.82;2.70;;;;;;;4.41;70.02;96229.16;5013577;28;20034;-65
2023/11/28 07:18:03;;;;;;;6.07;2.58;;;;;;;4.68;70.74;96262.41;5015406;28;20127;-66
2023/11/28 07:20:29;;;;;;;7.00;2.75;;;;;;;4.54;70.70;96262.09;5029348;28;20028;-66
2023/11/28 07:22:55;;;;;;;6.78;2.83;;;;;;;4.12;70.54;96203.16;5007004;28;20121;-66
2023/11/28 07:25:23;;;;;;;5.22;2.30;;;;;;;4.52;71.94;96276.09;5032126;28;20033;-66
2023/11/28 07:27:48;;;;;;;7.88;2.60;;;;;;;4.60;73.52;96307.78;5023931;28;20928;-65
2023/11/28 07:30:16;;;;;;;6.75;3.08;;;;;;;4.69;74.05;96294.88;5032104;28;20029;-65
2023/11/28 07:32:46;;;;;;;6.72;2.75;;;;;;;4.55;71.82;96275.78;5025371;28;20036;-66
2023/11/28 07:35:13;;;;;;;5.45;2.58;;;;;;;4.53;71.30;96272.56;5026641;28;20654;-66
2023/11/28 07:37:39;;;;;;;4.63;2.03;;;;;;;4.62;70.80;96251.00;5033824;28;20036;-66
2023/11/28 07:40:09;;;;;;;7.72;2.78;;;;;;;4.43;71.39;96229.81;5005851;28;20017;-65
2023/11/28 07:42:36;;;;;;;6.45;2.90;;;;;;;4.75;72.13;96283.94;5034697;28;20697;-66
2023/11/28 07:45:02;;;;;;;7.55;2.90;;;;;;;4.59;71.64;96306.16;5034335;28;20189;-66
2023/11/28 07:47:30;;;;;;;6.38;3.03;;;;;;;4.48;72.50;96301.34;5021588;28;20403;-65
2023/11/28 07:49:55;;;;;;;5.70;2.30;;;;;;;4.48;72.28;96323.72;5030686;28;20017;-66
2023/11/28 07:52:21;;;;;;;6.07;2.78;;;;;;;4.46;71.43;96329.03;5026117;28;20112;-66
2023/11/28 07:54:47;;;;;;;6.28;3.20;;;;;;;4.49;72.09;96333.84;5026757;28;20043;-66
2023/11/28 07:57:12;;;;;;;6.30;3.30;;;;;;;4.49;72.07;96339.00;5031286;28;20029;-66
2023/11/28 07:59:42;;;;;;;7.85;3.55;;;;;;;4.40;71.89;96338.19;5032143;28;20121;-66
2023/11/28 08:02:10;;;;;;;6.43;3.08;;;;;;;4.50;71.71;96366.31;5036001;28;20025;-66
2023/11/28 08:04:38;;;;;;;5.97;3.25;;;;;;;4.56;71.67;96354.59;5010436;28;20698;-65
2023/11/28 08:07:03;;;;;;;6.75;2.70;;;;;;;4.49;71.07;96339.00;5017930;28;20174;-66
2023/11/28 08:09:29;;;;;;;6.25;3.20;;;;;;;4.61;70.58;96350.56;5029669;28;20037;-65
2023/11/28 08:11:54;;;;;;;6.03;3.03;;;;;;;4.73;71.99;96340.75;5048351;28;20078;-66
2023/11/28 08:14:22;;;;;;;6.00;2.72;;;;;;;4.80;70.14;96357.16;5013917;28;20029;-66
2023/11/28 08:16:48;;;;;;;7.18;2.33;;;;;;;4.75;70.03;96356.81;5031946;28;20052;-66
2023/11/28 08:19:15;;;;;;;6.63;2.55;;;;;;;4.80;70.71;96333.97;5030576;28;20021;-64
2023/11/28 08:21:41;;;;;;;7.30;3.30;;;;;;;4.80;70.49;96325.41;5042949;28;20043;-64
2023/11/28 08:24:09;;;;;;;7.05;2.90;;;;;;;4.82;69.64;96314.00;5035612;28;20033;-64
2023/11/28 08:26:34;;;;;;;6.68;2.28;;;;;;;4.70;68.79;96312.75;5042480;28;20039;-63
2023/11/28 08:29:00;;;;;;;6.05;2.63;;;;;;;4.77;68.13;96328.34;5034834;28;20029;-64
2023/11/28 08:31:28;;;;;;;6.45;2.90;;;;;;;4.45;68.23;96273.38;5035452;28;20029;-64
2023/11/28 08:33:53;;;;;;;5.65;2.60;;;;;;;4.73;68.91;96322.72;5019702;28;20043;-64
2023/11/28 08:36:18;;;;;;;5.70;2.40;;;;;;;4.71;68.17;96301.50;5029892;28;20476;-65
2023/11/28 08:38:44;;;;;;;5.57;2.22;;;;;;;4.91;66.83;96312.22;5031820;28;20044;-63
2023/11/28 08:41:13;;;;;;;4.88;2.20;;;;;;;4.73;66.17;96265.28;5012157;28;20044;-64
2023/11/28 08:43:38;;;;;;;5.00;2.20;;;;;;;4.94;65.81;96250.06;5042072;28;20537;-64
2023/11/28 08:46:04;;;;;;;6.95;2.60;;;;;;;5.14;66.60;96247.09;5033616;28;20021;-64
2023/11/28 08:48:31;;;;;;;4.95;2.28;;;;;;;5.42;66.54;96228.59;5031973;28;20468;-65
2023/11/28 08:50:57;;;;;;;5.00;1.70;;;;;;;5.92;65.81;96295.13;5034894;28;20620;-64
2023/11/28 08:53:23;;;;;;;4.32;2.00;;;;;;;5.91;67.31;96277.25;5043366;28;20053;-65
2023/11/28 08:55:48;;;;;;;5.28;1.98;;;;;;;5.94;66.22;96262.22;5031634;28;20110;-63
2023/11/28 08:58:14;;;;;;;4.97;1.67;;;;;;;6.08;65.48;96283.13;5016345;28;20464;-65
2023/11/28 09:00:39;;;;;;;5.72;2.08;;;;;;;5.64;68.73;96251.00;5029892;28;20025;-64
2023/11/28 09:03:05;;;;;;;11.20;3.97;;;;;;;5.67;72.22;96322.84;5038645;28;20033;-64
2023/11/28 09:05:32;;;;;;;8.57;4.40;;;;;;;5.39;70.64;96337.97;5031465;28;20025;-64
2023/11/28 09:08:00;;;;;;;7.65;3.55;;;;;;;5.12;69.26;96274.78;5050587;28;20029;-64
2023/11/28 09:10:25;;;;;;;4.72;2.17;;;;;;;5.49;70.80;96330.81;5025303;28;20108;-64
2023/11/28 09:12:53;;;;;;;6.70;2.88;;;;;;;5.45;73.34;96332.13;5033620;28;20127;-64
2023/11/28 09:15:19;;;;;;;5.00;2.83;;;;;;;5.53;73.95;96337.28;5032430;28;20851;-65
2023/11/28 09:17:44;;;;;;;7.43;3.03;;;;;;;5.50;72.30;96329.06;5031118;28;20029;-64
2023/11/28 09:20:10;;;;;;;6.28;2.67;;;;;;;5.60;72.52;96316.75;5034396;28;20044;-64
2023/11/28 09:22:35;;;;;;;5.95;2.83;;;;;;;5.81;72.26;96318.75;5034336;28;20032;-64
2023/11/28 09:25:01;;;;;;;7.65;2.72;;;;;;;5.89;73.34;96318.69;5018035;28;20753;-63
2023/11/28 09:27:26;;;;;;;7.82;3.25;;;;;;;5.99;72.52;96328.00;5013904;28;20143;-63
2023/11/28 09:29:52;;;;;;;6.40;3.35;;;;;;;6.03;69.94;96319.75;5034174;28;20427;-64
2023/11/28 09:32:17;;;;;;;6.00;2.80;;;;;;;5.92;72.54;96317.56;5022005;28;20813;-64
2023/11/28 09:34:44;;;;;;;6.30;3.15;;;;;;;5.80;73.81;96314.56;5021769;28;20033;-64
2023/11/28 09:37:10;;;;;;;9.77;4.80;;;;;;;5.41;74.70;96284.47;5030106;28;20021;-64
2023/11/28 09:39:36;;;;;;;7.70;4.00;;;;;;;5.55;73.65;96313.91;5014855;28;20148;-64
2023/11/28 09:42:05;;;;;;;7.93;3.80;;;;;;;5.38;74.03;96271.94;5032306;28;20056;-64
2023/11/28 09:44:34;;;;;;;6.93;3.78;;;;;;;5.71;74.85;96305.25;5025204;28;20025;-64
2023/11/28 09:47:07;;;;;;;5.97;3.33;;;;;;;5.81;73.69;96321.31;5034187;28;20036;-64
2023/11/28 09:49:40;;;;;;;5.22;2.50;;;;;;;5.86;72.26;96303.56;5030333;28;20037;-64
2023/11/28 09:52:09;;;;;;;7.82;3.17;;;;;;;6.13;70.60;96301.47;5030081;28;20135;-64
2023/11/28 09:54:38;;;;;;;;;;;;;;;6.37;68.93;96305.66;5026253;28;20529;-64
2023/11/28 09:57:08;;;;;;;5.55;2.63;;;;;;;6.57;67.25;96300.78;5017583;28;19917;-64
2023/11/28 09:59:39;;;;;;;5.30;2.22;;;;;;;6.67;65.32;96265.16;5045164;28;20067;-64
2023/11/28 10:02:07;;;;;;;4.72;1.60;;;;;;;7.12;64.71;96298.75;5046153;28;20025;-64
2023/11/28 10:04:38;;;;;;;4.00;1.50;;;;;;;7.34;63.88;96307.38;5015308;28;21123;-65
2023/11/28 10:07:06;;;;;;;4.53;1.60;;;;;;;7.43;64.37;96292.53;5032868;28;20689;-65
2023/11/28 10:09:32;;;;;;;4.47;1.30;;;;;;;7.53;65.04;96294.88;5022561;28;20527;-64
2023/11/28 10:12:05;;;;;;;5.20;1.77;;;;;;;7.66;64.71;96293.19;5018242;28;20104;-64
2023/11/28 10:14:32;;;;;;;4.18;1.42;;;;;;;7.64;65.27;96281.44;5029977;28;20052;-65
2023/11/28 10:16:58;;;;;;;8.00;1.80;;;;;;;7.63;65.74;96279.84;5032809;28;20141;-64
2023/11/28 10:19:25;;;;;;;4.97;1.60;;;;;;;7.57;66.17;96271.03;5026581;28;20116;-63
2023/11/28 10:21:53;;;;;;;4.95;1.90;;;;;;;7.68;66.66;96280.09;5018547;28;20970;-65
2023/11/28 10:24:24;;;;;;;7.95;2.13;;;;;;;7.60;67.95;96280.22;5028847;28;20021;-64
2023/11/28 10:26:56;;;;;;;6.63;2.65;;;;;;;7.57;68.54;96267.66;5042976;28;20120;-64
2023/11/28 10:29:21;;;;;;;5.53;2.58;;;;;;;7.60;69.05;96275.03;5027061;28;20091;-64
2023/11/28 10:31:49;;;;;;;7.72;2.70;;;;;;;7.49;69.63;96273.75;5018800;28;20021;-64
2023/11/28 10:34:14;;;;;;;5.40;2.28;;;;;;;7.32;69.89;96222.25;5010111;28;20040;-64
2023/11/28 10:36:44;;;;;;;5.40;2.50;;;;;;;7.57;71.41;96268.44;5038687;28;20033;-63
2023/11/28 10:39:15;;;;;;;9.15;3.50;;;;;;;7.64;73.58;96265.94;5024010;28;20047;-65
2023/11/28 10:41:41;;;;;;;6.13;3.10;;;;;;;7.48;71.15;96217.81;5024045;28;20029;-65
2023/11/28 10:44:09;;;;;;;5.63;2.70;;;;;;;7.85;71.90;96262.56;5023553;28;20060;-65
2023/11/28 10:46:39;;;;;;;7.30;3.00;;;;;;;7.91;70.68;96259.22;5024406;28;20087;-65
2023/11/28 10:49:07;;;;;;;6.13;2.35;;;;;;;7.97;68.18;96249.94;5039759;28;20106;-66
2023/11/28 10:51:36;;;;;;;5.90;2.83;;;;;;;8.17;68.78;96260.44;5024613;28;20048;-66
2023/11/28 10:54:09;;;;;;;5.03;1.98;;;;;;;8.10;66.20;96239.66;5029053;28;20600;-65
2023/11/28 10:56:50;;;;;;;5.22;2.20;;;;;;;8.42;68.16;96259.06;5023005;28;20051;-65
2023/11/28 10:59:37;;;;;;;4.93;2.28;;;;;;;8.45;68.43;96252.72;5024409;28;20646;-62
2023/11/28 11:02:06;;;;;;;6.05;2.60;;;;;;;8.49;69.60;96251.38;5042346;28;20029;-66
2023/11/28 11:04:34;;;;;;;4.70;2.10;;;;;;;8.58;66.68;96244.22;5024461;28;20494;-66
2023/11/28 11:07:00;;;;;;;4.10;1.63;;;;;;;8.74;64.89;96250.91;5027054;28;20124;-63
2023/11/28 11:09:27;;;;;;;4.32;1.52;;;;;;;8.91;64.83;96246.19;5035512;28;20775;-66
2023/11/28 11:11:53;;;;;;;4.88;1.90;;;;;;;8.97;66.30;96246.25;5019431;28;20041;-63
2023/11/28 11:14:22;;;;;;;5.70;1.83;;;;;;;9.07;65.18;96247.69;5019185;28;20029;-66
2023/11/28 11:16:57;;;;;;;4.53;1.77;;;;;;;9.07;67.15;96247.69;5040997;28;20036;-64
2023/11/28 11:19:25;;;;;;;5.43;2.80;;;;;;;9.02;71.06;96246.47;5022436;28;20325;-66
2023/11/28 11:22:00;;;;;;;6.53;3.00;;;;;;;8.90;72.80;96239.44;5024129;28;20056;-63
2023/11/28 11:24:27;;;;;;;5.53;2.55;;;;;;;8.81;72.57;96241.38;5006580;28;20029;-66
2023/11/28 11:26:56;;;;;;;5.65;2.55;;;;;;;8.83;72.38;96242.81;5037676;28;20815;-66
2023/11/28 11:29:24;;;;;;;8.75;2.80;;;;;;;8.84;72.43;96226.25;5019875;28;20025;-64
2023/11/28 11:31:51;;;;;;;6.95;3.17;;;;;;;8.81;73.24;96231.00;5025171;28;20275;-64